createdAt,value
2018-07-07T00:00:44.012Z,949.65
2018-07-07T00:03:10.331Z,949.71
2018-07-07T00:05:36.644Z,949.76
2018-07-07T00:08:02.999Z,949.84
2018-07-07T00:10:29.317Z,949.86
2018-07-07T00:12:55.635Z,949.87
2018-07-07T00:15:21.957Z,949.85
2018-07-07T00:17:48.273Z,949.80
2018-07-07T00:20:14.626Z,949.76
2018-07-07T00:22:40.938Z,949.67
2018-07-07T00:25:07.249Z,949.66
2018-07-07T00:27:33.565Z,949.70
2018-07-07T00:29:59.877Z,949.75
2018-07-07T00:32:26.197Z,949.67
2018-07-07T00:34:52.508Z,949.61
2018-07-07T00:37:18.857Z,949.54
2018-07-07T00:39:45.170Z,949.49
2018-07-07T00:42:11.486Z,949.43
2018-07-07T00:44:37.804Z,949.49
2018-07-07T00:47:04.108Z,949.54
2018-07-07T00:49:30.425Z,949.50
2018-07-07T00:51:56.737Z,949.55
2018-07-07T00:54:23.091Z,949.47
2018-07-07T00:56:49.382Z,949.43
2018-07-07T00:59:15.697Z,949.46
2018-07-07T01:01:42.026Z,949.45
2018-07-07T01:04:08.365Z,949.45
2018-07-07T01:06:34.682Z,949.48
2018-07-07T01:09:00.994Z,949.44
2018-07-07T01:11:27.316Z,949.49
2018-07-07T01:13:53.664Z,949.50
2018-07-07T01:16:19.989Z,949.49
2018-07-07T01:18:46.301Z,949.51
2018-07-07T01:21:12.716Z,949.52
2018-07-07T01:23:39.037Z,949.51
2018-07-07T01:26:05.353Z,949.57
2018-07-07T01:28:31.664Z,949.52
2018-07-07T01:30:57.981Z,949.63
2018-07-07T01:33:24.293Z,949.60
2018-07-07T01:35:50.604Z,949.60
2018-07-07T01:38:16.921Z,949.58
2018-07-07T01:40:43.232Z,949.47
2018-07-07T01:43:09.553Z,949.49
2018-07-07T01:45:35.867Z,949.53
2018-07-07T01:48:02.183Z,949.58
2018-07-07T01:50:28.493Z,949.50
2018-07-07T01:52:54.817Z,949.57
2018-07-07T01:55:21.135Z,949.57
2018-07-07T01:57:47.449Z,949.51
2018-07-07T02:00:13.805Z,949.50
2018-07-07T02:02:40.122Z,949.50
2018-07-07T02:05:06.489Z,949.49
2018-07-07T02:07:32.800Z,949.42
2018-07-07T02:09:59.115Z,949.34
2018-07-07T02:12:25.452Z,949.33
2018-07-07T02:14:51.760Z,949.27
2018-07-07T02:17:18.074Z,949.20
2018-07-07T02:19:44.392Z,949.18
2018-07-07T02:22:10.717Z,949.21
2018-07-07T02:24:37.062Z,949.18
2018-07-07T02:27:03.383Z,949.15
2018-07-07T02:29:29.693Z,949.16
2018-07-07T02:31:56.022Z,949.19
2018-07-07T02:34:22.358Z,949.31
2018-07-07T02:36:48.838Z,949.40
2018-07-07T02:39:15.148Z,949.40
2018-07-07T02:41:41.462Z,949.40
2018-07-07T02:44:07.778Z,949.31
2018-07-07T02:46:34.101Z,949.35
2018-07-07T02:49:00.408Z,949.38
2018-07-07T02:51:26.725Z,949.35
2018-07-07T02:53:53.042Z,949.40
2018-07-07T02:56:19.363Z,949.42
2018-07-07T02:58:45.721Z,949.49
2018-07-07T03:01:12.039Z,949.54
2018-07-07T03:03:38.357Z,949.54
2018-07-07T03:06:04.680Z,949.52
2018-07-07T03:08:31.006Z,949.48
2018-07-07T03:10:57.319Z,949.37
2018-07-07T03:13:23.668Z,949.36
2018-07-07T03:15:49.988Z,949.36
2018-07-07T03:18:16.317Z,949.38
2018-07-07T03:20:42.645Z,949.45
2018-07-07T03:23:08.964Z,949.45
2018-07-07T03:25:35.280Z,949.49
2018-07-07T03:28:01.605Z,949.57
2018-07-07T03:30:27.984Z,949.57
2018-07-07T03:32:54.303Z,949.55
2018-07-07T03:35:20.616Z,949.55
2018-07-07T03:37:46.934Z,949.47
2018-07-07T03:40:13.272Z,949.46
2018-07-07T03:42:39.697Z,949.46
2018-07-07T03:45:06.019Z,949.48
2018-07-07T03:47:32.338Z,949.56
2018-07-07T03:49:58.649Z,949.53
2018-07-07T03:52:24.968Z,949.51
2018-07-07T03:54:51.300Z,949.54
2018-07-07T03:57:17.614Z,949.56
2018-07-07T03:59:43.934Z,949.58
2018-07-07T04:02:10.245Z,949.55
2018-07-07T04:04:36.588Z,949.53
2018-07-07T04:07:02.910Z,949.49
2018-07-07T04:09:29.224Z,949.47
2018-07-07T04:11:55.547Z,949.52
2018-07-07T04:14:21.868Z,949.53
2018-07-07T04:16:48.182Z,949.56
2018-07-07T04:19:14.498Z,949.61
2018-07-07T04:21:40.817Z,949.54
2018-07-07T04:24:07.145Z,949.56
2018-07-07T04:26:33.466Z,949.52
2018-07-07T04:28:59.777Z,949.45
2018-07-07T04:31:26.095Z,949.43
2018-07-07T04:33:52.410Z,949.40
2018-07-07T04:36:18.765Z,949.35
2018-07-07T04:38:45.081Z,949.36
2018-07-07T04:41:11.387Z,949.29
2018-07-07T04:43:37.712Z,949.31
2018-07-07T04:46:04.179Z,949.25
2018-07-07T04:48:30.401Z,949.23
2018-07-07T04:50:56.715Z,949.38
2018-07-07T04:53:23.027Z,949.40
2018-07-07T04:55:49.450Z,949.42
2018-07-07T04:58:15.764Z,949.40
2018-07-07T05:00:42.073Z,949.36
2018-07-07T05:03:08.388Z,949.39
2018-07-07T05:05:34.736Z,949.38
2018-07-07T05:08:01.073Z,949.38
2018-07-07T05:10:27.384Z,949.39
2018-07-07T05:12:53.697Z,949.44
2018-07-07T05:15:20.022Z,949.48
2018-07-07T05:17:46.335Z,949.48
2018-07-07T05:20:12.655Z,949.59
2018-07-07T05:22:39.004Z,949.59
2018-07-07T05:25:05.344Z,949.61
2018-07-07T05:27:31.661Z,949.66
2018-07-07T05:29:57.978Z,949.68
2018-07-07T05:32:24.296Z,949.66
2018-07-07T05:34:50.615Z,949.67
2018-07-07T05:37:16.946Z,949.68
2018-07-07T05:39:43.251Z,949.67
2018-07-07T05:42:09.555Z,949.67
2018-07-07T05:44:35.917Z,949.67
2018-07-07T05:47:02.220Z,949.73
2018-07-07T05:49:28.545Z,949.77
2018-07-07T05:51:54.852Z,949.76
2018-07-07T05:54:21.169Z,949.78
2018-07-07T05:56:47.504Z,949.76
2018-07-07T05:59:13.812Z,949.79
2018-07-07T06:01:40.135Z,949.77
2018-07-07T06:04:06.445Z,949.78
2018-07-07T06:06:32.778Z,949.80
2018-07-07T06:08:59.100Z,949.80
2018-07-07T06:11:25.418Z,949.81
2018-07-07T06:13:51.729Z,949.82
2018-07-07T06:16:18.040Z,949.89
2018-07-07T06:18:44.357Z,949.90
2018-07-07T06:21:10.666Z,949.85
2018-07-07T06:23:36.982Z,949.83
2018-07-07T06:26:03.294Z,949.78
2018-07-07T06:28:29.661Z,949.82
2018-07-07T06:30:55.979Z,949.82
2018-07-07T06:33:22.295Z,949.78
2018-07-07T06:35:48.609Z,949.75
2018-07-07T06:38:14.929Z,949.77
2018-07-07T06:40:41.248Z,949.74
2018-07-07T06:43:07.566Z,949.76
2018-07-07T06:45:33.881Z,949.85
2018-07-07T06:48:00.196Z,949.87
2018-07-07T06:50:26.505Z,949.85
2018-07-07T06:52:52.822Z,949.87
2018-07-07T06:55:19.134Z,949.84
2018-07-07T06:57:45.449Z,949.85
2018-07-07T07:00:11.766Z,949.80
2018-07-07T07:02:38.097Z,949.82
2018-07-07T07:05:04.459Z,949.82
2018-07-07T07:07:30.818Z,949.85
2018-07-07T07:09:57.131Z,949.80
2018-07-07T07:12:23.456Z,949.74
2018-07-07T07:14:49.772Z,949.71
2018-07-07T07:17:16.085Z,949.67
2018-07-07T07:19:42.408Z,949.64
2018-07-07T07:22:08.717Z,949.60
2018-07-07T07:24:35.029Z,949.58
2018-07-07T07:27:01.342Z,949.55
2018-07-07T07:29:27.676Z,949.50
2018-07-07T07:31:53.995Z,949.56
2018-07-07T07:34:20.308Z,949.52
2018-07-07T07:36:46.646Z,949.48
2018-07-07T07:39:12.964Z,949.46
2018-07-07T07:41:39.281Z,949.41
2018-07-07T07:44:05.592Z,949.43
2018-07-07T07:46:31.945Z,949.33
2018-07-07T07:48:58.257Z,949.34
2018-07-07T07:51:24.612Z,949.35
2018-07-07T07:53:50.928Z,949.36
2018-07-07T07:56:17.287Z,949.38
2018-07-07T07:58:43.600Z,949.41
2018-07-07T08:01:09.965Z,949.41
2018-07-07T08:03:36.281Z,949.29
2018-07-07T08:06:02.595Z,949.21
2018-07-07T08:08:28.938Z,949.14
2018-07-07T08:10:55.247Z,949.16
2018-07-07T08:13:21.567Z,949.16
2018-07-07T08:15:47.888Z,949.13
2018-07-07T08:18:14.197Z,949.24
2018-07-07T08:20:40.513Z,949.12
2018-07-07T08:23:06.874Z,949.16
2018-07-07T08:25:33.203Z,949.09
2018-07-07T08:27:59.543Z,949.07
2018-07-07T08:30:25.897Z,949.01
2018-07-07T08:32:52.211Z,948.98
2018-07-07T08:35:18.521Z,949.04
2018-07-07T08:37:44.836Z,949.01
2018-07-07T08:40:11.144Z,949.09
2018-07-07T08:42:37.459Z,949.15
2018-07-07T08:45:03.775Z,949.25
2018-07-07T08:47:30.140Z,949.28
2018-07-07T08:49:56.471Z,949.20
2018-07-07T08:52:22.783Z,949.20
2018-07-07T08:54:49.101Z,949.20
2018-07-07T08:57:15.411Z,949.11
2018-07-07T08:59:41.725Z,949.14
2018-07-07T09:02:08.066Z,949.11
2018-07-07T09:04:34.356Z,949.11
2018-07-07T09:07:00.673Z,949.11
2018-07-07T09:09:26.985Z,949.09
2018-07-07T09:11:53.300Z,949.04
2018-07-07T09:14:19.672Z,949.18
2018-07-07T09:16:45.923Z,949.17
2018-07-07T09:19:12.244Z,949.12
2018-07-07T09:21:38.560Z,949.13
2018-07-07T09:24:04.875Z,949.07
2018-07-07T09:26:31.185Z,949.13
2018-07-07T09:29:03.964Z,949.11
2018-07-07T09:31:30.280Z,949.12
2018-07-07T09:33:56.596Z,949.18
2018-07-07T09:36:22.904Z,949.19
2018-07-07T09:38:49.250Z,949.29
2018-07-07T09:41:15.541Z,949.27
2018-07-07T09:43:41.911Z,949.39
2018-07-07T09:46:08.223Z,949.49
2018-07-07T09:48:34.535Z,949.47
2018-07-07T09:51:00.850Z,949.50
2018-07-07T09:53:31.459Z,949.50
2018-07-07T09:55:56.316Z,949.47
2018-07-07T09:58:22.655Z,949.37
2018-07-07T10:00:49.000Z,949.35
2018-07-07T10:03:15.341Z,949.36
2018-07-07T10:05:41.612Z,949.38
2018-07-07T10:08:07.959Z,949.46
2018-07-07T10:10:34.278Z,949.52
2018-07-07T10:13:01.133Z,949.45
2018-07-07T10:15:27.488Z,949.64
2018-07-07T10:17:53.790Z,949.75
2018-07-07T10:20:20.091Z,949.82
2018-07-07T10:22:46.410Z,949.89
2018-07-07T10:25:12.724Z,949.94
2018-07-07T10:27:39.096Z,950.05
2018-07-07T10:30:05.418Z,950.08
2018-07-07T10:32:31.733Z,950.26
2018-07-07T10:34:58.050Z,950.25
2018-07-07T10:37:24.402Z,950.32
2018-07-07T10:39:50.708Z,950.37
2018-07-07T10:42:17.028Z,950.37
2018-07-07T10:44:43.463Z,950.43
2018-07-07T10:47:09.761Z,950.31
2018-07-07T10:49:36.122Z,950.35
2018-07-07T10:52:02.433Z,950.35
2018-07-07T10:54:28.757Z,950.32
2018-07-07T10:56:55.087Z,950.28
2018-07-07T10:59:21.411Z,950.19
2018-07-07T11:01:47.721Z,950.14
2018-07-07T11:04:14.095Z,950.11
2018-07-07T11:06:40.405Z,950.11
2018-07-07T11:09:06.722Z,950.08
2018-07-07T11:11:33.077Z,950.02
2018-07-07T11:13:59.399Z,949.96
2018-07-07T11:16:25.755Z,949.84
2018-07-07T11:18:52.071Z,950.02
2018-07-07T11:21:18.406Z,950.02
2018-07-07T11:23:44.717Z,949.94
2018-07-07T11:26:11.088Z,950.05
2018-07-07T11:28:37.417Z,950.03
2018-07-07T11:31:03.739Z,950.07
2018-07-07T11:33:30.063Z,950.01
2018-07-07T11:35:56.386Z,950.05
2018-07-07T11:38:22.698Z,950.04
2018-07-07T11:40:49.061Z,950.04
2018-07-07T11:43:15.386Z,950.06
2018-07-07T11:45:41.709Z,950.08
2018-07-07T11:48:08.026Z,950.05
2018-07-07T11:50:34.403Z,950.07
2018-07-07T11:53:00.680Z,950.11
2018-07-07T11:55:26.998Z,950.19
2018-07-07T11:57:53.314Z,950.21
2018-07-07T12:00:19.646Z,950.19
2018-07-07T12:02:45.978Z,950.16
2018-07-07T12:05:12.339Z,950.23
2018-07-07T12:07:38.658Z,950.26
2018-07-07T12:10:04.973Z,950.29
2018-07-07T12:12:31.286Z,950.29
2018-07-07T12:14:57.612Z,950.20
2018-07-07T12:17:23.997Z,950.34
2018-07-07T12:19:50.265Z,950.38
2018-07-07T12:22:16.577Z,950.37
2018-07-07T12:24:42.916Z,950.45
2018-07-07T12:27:09.210Z,950.46
2018-07-07T12:29:35.522Z,950.49
2018-07-07T12:32:01.852Z,950.49
2018-07-07T12:34:28.214Z,950.53
2018-07-07T12:36:54.542Z,950.43
2018-07-07T12:39:20.859Z,950.45
2018-07-07T12:41:47.169Z,950.45
2018-07-07T12:44:13.487Z,950.34
2018-07-07T12:46:39.806Z,950.27
2018-07-07T12:49:06.134Z,950.22
2018-07-07T12:51:32.447Z,950.18
2018-07-07T12:53:58.781Z,950.10
2018-07-07T12:56:25.087Z,950.00
2018-07-07T12:58:51.407Z,949.97
2018-07-07T13:01:17.777Z,949.93
2018-07-07T13:03:44.033Z,949.94
2018-07-07T13:06:10.356Z,949.92
2018-07-07T13:08:36.669Z,949.83
2018-07-07T13:11:02.984Z,949.78
2018-07-07T13:13:29.347Z,949.72
2018-07-07T13:15:55.676Z,949.64
2018-07-07T13:18:22.011Z,949.58
2018-07-07T13:20:48.358Z,949.66
2018-07-07T13:23:14.653Z,949.67
2018-07-07T13:25:40.975Z,949.73
2018-07-07T13:28:07.289Z,949.69
2018-07-07T13:30:33.640Z,949.61
2018-07-07T13:33:00.029Z,949.65
2018-07-07T13:35:26.276Z,949.73
2018-07-07T13:37:52.589Z,949.67
2018-07-07T13:40:18.909Z,949.57
2018-07-07T13:42:45.221Z,949.59
2018-07-07T13:45:11.534Z,949.62
2018-07-07T13:47:37.860Z,949.58
2018-07-07T13:50:04.173Z,949.58
2018-07-07T13:52:30.529Z,949.52
2018-07-07T13:54:56.857Z,949.57
2018-07-07T13:57:23.223Z,949.57
2018-07-07T13:59:49.527Z,949.48
2018-07-07T14:02:15.908Z,949.42
2018-07-07T14:04:42.180Z,949.43
2018-07-07T14:07:08.504Z,949.54
2018-07-07T14:09:34.982Z,949.51
2018-07-07T14:12:01.136Z,949.54
2018-07-07T14:14:27.448Z,949.44
2018-07-07T14:16:53.822Z,949.41
2018-07-07T14:19:20.124Z,949.41
2018-07-07T14:21:46.443Z,949.35
2018-07-07T14:24:12.766Z,949.34
2018-07-07T14:26:39.076Z,949.31
2018-07-07T14:29:05.482Z,949.36
2018-07-07T14:31:31.800Z,949.36
2018-07-07T14:33:58.113Z,949.35
2018-07-07T14:36:24.427Z,949.31
2018-07-07T14:38:50.741Z,949.39
2018-07-07T14:41:17.078Z,949.41
2018-07-07T14:43:43.418Z,949.42
2018-07-07T14:46:09.735Z,949.45
2018-07-07T14:48:36.049Z,949.48
2018-07-07T14:51:02.363Z,949.48
2018-07-07T14:53:28.792Z,949.51
2018-07-07T14:55:55.105Z,949.45
2018-07-07T14:58:21.474Z,949.55
2018-07-07T15:00:47.751Z,949.56
2018-07-07T15:03:14.068Z,949.55
2018-07-07T15:05:40.376Z,949.56
2018-07-07T15:08:06.717Z,949.59
2018-07-07T15:10:33.043Z,949.57
2018-07-07T15:12:59.366Z,949.60
2018-07-07T15:15:25.731Z,949.65
2018-07-07T15:17:52.037Z,949.58
2018-07-07T15:20:18.346Z,949.60
2018-07-07T15:22:44.837Z,949.60
2018-07-07T15:25:11.033Z,949.64
2018-07-07T15:27:37.351Z,949.59
2018-07-07T15:30:03.666Z,949.56
2018-07-07T15:32:29.983Z,949.55
2018-07-07T15:34:56.339Z,949.45
2018-07-07T15:37:22.648Z,949.44
2018-07-07T15:39:48.972Z,949.38
2018-07-07T15:42:15.336Z,949.34
2018-07-07T15:44:41.604Z,949.29
2018-07-07T15:47:07.923Z,949.26
2018-07-07T15:49:34.231Z,949.35
2018-07-07T15:52:00.545Z,949.28
2018-07-07T15:54:26.862Z,949.31
2018-07-07T15:56:53.175Z,949.34
2018-07-07T15:59:19.491Z,949.30
2018-07-07T16:01:45.807Z,949.30
2018-07-07T16:04:12.160Z,949.35
2018-07-07T16:06:38.473Z,949.25
2018-07-07T16:09:04.782Z,949.32
2018-07-07T16:11:31.105Z,949.25
2018-07-07T16:13:57.421Z,949.24
2018-07-07T16:16:23.730Z,949.31
2018-07-07T16:18:50.044Z,949.24
2018-07-07T16:21:16.355Z,949.25
2018-07-07T16:23:42.669Z,949.17
2018-07-07T16:26:09.002Z,949.28
2018-07-07T16:28:35.348Z,949.28
2018-07-07T16:31:01.640Z,949.32
2018-07-07T16:33:27.947Z,949.33
2018-07-07T16:35:54.261Z,949.31
2018-07-07T16:38:20.616Z,949.30
2018-07-07T16:40:46.928Z,949.24
2018-07-07T16:43:13.242Z,949.24
2018-07-07T16:45:39.550Z,949.26
2018-07-07T16:48:05.871Z,949.27
2018-07-07T16:50:32.186Z,949.31
2018-07-07T16:52:58.497Z,949.34
2018-07-07T16:55:24.812Z,949.40
2018-07-07T16:57:51.156Z,949.50
2018-07-07T17:00:17.521Z,949.51
2018-07-07T17:02:43.816Z,949.53
2018-07-07T17:05:10.139Z,949.54
2018-07-07T17:07:36.501Z,949.53
2018-07-07T17:10:02.936Z,949.57
2018-07-07T17:12:29.251Z,949.52
2018-07-07T17:14:55.567Z,949.49
2018-07-07T17:17:21.918Z,949.45
2018-07-07T17:19:48.238Z,949.36
2018-07-07T17:22:14.558Z,949.27
2018-07-07T17:24:40.905Z,949.38
2018-07-07T17:27:07.201Z,949.40
2018-07-07T17:29:33.519Z,949.47
2018-07-07T17:31:59.833Z,949.50
2018-07-07T17:34:26.173Z,949.55
2018-07-07T17:36:52.507Z,949.53
2018-07-07T17:39:18.813Z,949.59
2018-07-07T17:41:45.135Z,949.55
2018-07-07T17:44:11.483Z,949.66
2018-07-07T17:46:37.851Z,949.68
2018-07-07T17:49:04.129Z,949.63
2018-07-07T17:51:30.440Z,949.60
2018-07-07T17:53:56.766Z,949.59
2018-07-07T17:56:23.089Z,949.62
2018-07-07T17:58:49.404Z,949.60
2018-07-07T18:01:15.718Z,949.58
2018-07-07T18:03:42.034Z,949.53
2018-07-07T18:06:08.345Z,949.51
2018-07-07T18:08:34.657Z,949.49
2018-07-07T18:11:00.974Z,949.48
2018-07-07T18:13:27.311Z,949.54
2018-07-07T18:15:53.626Z,949.50
2018-07-07T18:18:19.936Z,949.55
2018-07-07T18:20:46.258Z,949.53
2018-07-07T18:23:12.572Z,949.52
2018-07-07T18:25:38.968Z,949.60
2018-07-07T18:28:05.289Z,949.57
2018-07-07T18:30:31.611Z,949.60
2018-07-07T18:32:57.934Z,949.62
2018-07-07T18:35:24.251Z,949.68
2018-07-07T18:37:50.648Z,949.72
2018-07-07T18:40:16.883Z,949.74
2018-07-07T18:42:43.217Z,949.79
2018-07-07T18:45:09.548Z,949.89
2018-07-07T18:47:35.862Z,949.88
2018-07-07T18:50:02.181Z,949.95
2018-07-07T18:52:28.537Z,949.96
2018-07-07T18:54:54.854Z,950.05
2018-07-07T18:57:21.222Z,950.04
2018-07-07T18:59:47.551Z,950.12
2018-07-07T19:02:13.876Z,950.17
2018-07-07T19:04:40.198Z,950.14
2018-07-07T19:07:06.516Z,950.18
2018-07-07T19:09:32.871Z,950.16
2018-07-07T19:11:59.174Z,950.17
2018-07-07T19:14:25.502Z,950.12
2018-07-07T19:16:51.822Z,950.18
2018-07-07T19:19:18.174Z,950.17
2018-07-07T19:21:44.499Z,950.15
2018-07-07T19:24:10.771Z,950.16
2018-07-07T19:26:37.090Z,950.12
2018-07-07T19:29:03.400Z,950.14
2018-07-07T19:31:29.727Z,950.15
2018-07-07T19:33:56.040Z,950.07
2018-07-07T19:36:22.367Z,950.05
2018-07-07T19:38:48.688Z,950.04
2018-07-07T19:41:15.013Z,950.01
2018-07-07T19:43:41.329Z,950.04
2018-07-07T19:46:07.686Z,950.12
2018-07-07T19:48:33.972Z,950.14
2018-07-07T19:51:00.299Z,950.11
2018-07-07T19:53:26.608Z,950.12
2018-07-07T19:55:52.940Z,950.15
2018-07-07T19:58:19.269Z,950.16
2018-07-07T20:00:45.626Z,950.15
2018-07-07T20:03:11.995Z,950.10
2018-07-07T20:05:38.310Z,950.12
2018-07-07T20:08:04.629Z,950.12
2018-07-07T20:10:30.947Z,950.17
2018-07-07T20:12:57.266Z,950.22
2018-07-07T20:15:23.584Z,950.13
2018-07-07T20:17:49.908Z,950.06
2018-07-07T20:20:16.228Z,950.10
2018-07-07T20:22:42.552Z,950.08
2018-07-07T20:25:08.901Z,950.05
2018-07-07T20:27:35.231Z,950.06
2018-07-07T20:30:01.547Z,950.05
2018-07-07T20:32:27.873Z,950.09
2018-07-07T20:34:54.229Z,950.14
2018-07-07T20:37:20.513Z,950.11
2018-07-07T20:39:46.836Z,950.12
2018-07-07T20:42:13.161Z,950.15
2018-07-07T20:44:41.093Z,950.13
2018-07-07T20:47:05.934Z,950.07
2018-07-07T20:49:32.245Z,950.06
2018-07-07T20:51:58.567Z,950.05
2018-07-07T20:54:24.878Z,950.12
2018-07-07T20:56:51.199Z,950.11
2018-07-07T20:59:17.517Z,950.11
2018-07-07T21:01:43.853Z,950.09
2018-07-07T21:04:10.161Z,950.04
2018-07-07T21:06:36.478Z,950.03
2018-07-07T21:09:02.803Z,950.10
2018-07-07T21:11:29.121Z,950.12
2018-07-07T21:13:55.430Z,950.09
2018-07-07T21:16:21.751Z,950.08
2018-07-07T21:18:48.072Z,950.11
2018-07-07T21:21:14.380Z,950.05
2018-07-07T21:23:40.792Z,950.10
2018-07-07T21:26:07.017Z,950.11
2018-07-07T21:28:33.340Z,950.14
2018-07-07T21:30:59.661Z,950.15
2018-07-07T21:33:26.030Z,950.05
2018-07-07T21:35:52.352Z,950.07
2018-07-07T21:38:18.731Z,950.10
2018-07-07T21:40:45.050Z,950.11
2018-07-07T21:43:11.362Z,950.18
2018-07-07T21:45:37.682Z,950.14
2018-07-07T21:48:04.005Z,950.17
2018-07-07T21:50:30.361Z,950.14
2018-07-07T21:52:56.665Z,950.15
2018-07-07T21:55:22.976Z,950.07
2018-07-07T21:57:49.291Z,950.14
2018-07-07T22:00:15.669Z,950.14
2018-07-07T22:02:42.053Z,950.03
2018-07-07T22:05:08.322Z,950.05
2018-07-07T22:07:34.646Z,950.06
2018-07-07T22:10:00.976Z,950.08
2018-07-07T22:12:27.295Z,950.02
2018-07-07T22:14:53.613Z,950.09
2018-07-07T22:17:19.927Z,950.07
2018-07-07T22:19:46.248Z,950.05
2018-07-07T22:22:12.576Z,950.00
2018-07-07T22:24:38.940Z,950.06
2018-07-07T22:27:05.220Z,950.03
2018-07-07T22:29:31.546Z,949.94
2018-07-07T22:31:57.866Z,949.98
2018-07-07T22:34:24.180Z,950.03
2018-07-07T22:36:50.499Z,950.00
2018-07-07T22:39:16.819Z,949.93
2018-07-07T22:41:43.162Z,950.00
2018-07-07T22:44:09.498Z,949.97
2018-07-07T22:46:35.804Z,949.97
2018-07-07T22:49:02.174Z,950.01
2018-07-07T22:51:28.496Z,950.00
2018-07-07T22:53:54.850Z,949.96
2018-07-07T22:56:23.000Z,949.99
2018-07-07T22:58:49.314Z,949.90
2018-07-07T23:01:15.630Z,949.89
2018-07-07T23:03:41.953Z,949.93
2018-07-07T23:06:08.265Z,949.86
2018-07-07T23:08:34.590Z,949.82
2018-07-07T23:11:00.906Z,949.82
2018-07-07T23:13:27.228Z,949.84
2018-07-07T23:15:53.552Z,949.72
2018-07-07T23:18:19.903Z,949.78
2018-07-07T23:20:46.217Z,949.73
2018-07-07T23:23:12.531Z,949.72
2018-07-07T23:25:38.868Z,949.69
2018-07-07T23:28:05.156Z,949.71
2018-07-07T23:30:31.469Z,949.69
2018-07-07T23:32:57.788Z,949.70
2018-07-07T23:35:24.104Z,949.66
2018-07-07T23:37:50.420Z,949.66
2018-07-07T23:40:16.742Z,949.64
2018-07-07T23:42:43.045Z,949.69
2018-07-07T23:45:09.374Z,949.64
2018-07-07T23:47:35.697Z,949.61
2018-07-07T23:50:02.020Z,949.59
2018-07-07T23:52:28.389Z,949.53
2018-07-07T23:54:54.676Z,949.46
2018-07-07T23:57:21.006Z,949.51
2018-07-07T23:59:47.329Z,949.49
